sensor_id;sensor_type;location;lat;lon;timestamp;pressure;altitude;pressure_sealevel;temperature
11321;BMP180;5715;48.234;14.320;2022-07-23T00:01:21;98617.00;;;30.50
11321;BMP180;5715;48.234;14.320;2022-07-23T00:04:14;98622.00;;;30.50
11321;BMP180;5715;48.234;14.320;2022-07-23T00:07:01;98616.00;;;30.50
11321;BMP180;5715;48.234;14.320;2022-07-23T00:09:49;98616.00;;;30.50
11321;BMP180;5715;48.234;14.320;2022-07-23T00:12:37;98610.00;;;30.50
11321;BMP180;5715;48.234;14.320;2022-07-23T00:15:38;98583.00;;;30.60
11321;BMP180;5715;48.234;14.320;2022-07-23T00:18:26;98578.00;;;30.50
11321;BMP180;5715;48.234;14.320;2022-07-23T00:21:13;98568.00;;;30.20
11321;BMP180;5715;48.234;14.320;2022-07-23T00:24:01;98562.00;;;30.30
11321;BMP180;5715;48.234;14.320;2022-07-23T00:26:49;98543.00;;;30.40
11321;BMP180;5715;48.234;14.320;2022-07-23T00:29:36;98538.00;;;30.40
11321;BMP180;5715;48.234;14.320;2022-07-23T00:32:24;98505.00;;;30.60
11321;BMP180;5715;48.234;14.320;2022-07-23T00:35:35;98491.00;;;30.70
11321;BMP180;5715;48.234;14.320;2022-07-23T00:38:23;98489.00;;;30.30
11321;BMP180;5715;48.234;14.320;2022-07-23T00:41:10;98509.00;;;30.40
11321;BMP180;5715;48.234;14.320;2022-07-23T00:44:22;98469.00;;;30.80
11321;BMP180;5715;48.234;14.320;2022-07-23T00:47:10;98442.00;;;31.00
11321;BMP180;5715;48.234;14.320;2022-07-23T00:49:57;98433.00;;;30.70
11321;BMP180;5715;48.234;14.320;2022-07-23T00:52:46;98418.00;;;30.00
11321;BMP180;5715;48.234;14.320;2022-07-23T00:55:34;98422.00;;;30.70
11321;BMP180;5715;48.234;14.320;2022-07-23T00:58:22;98432.00;;;30.70
11321;BMP180;5715;48.234;14.320;2022-07-23T01:01:11;98440.00;;;30.70
11321;BMP180;5715;48.234;14.320;2022-07-23T01:03:58;98456.00;;;30.60
11321;BMP180;5715;48.234;14.320;2022-07-23T01:06:46;98460.00;;;30.60
11321;BMP180;5715;48.234;14.320;2022-07-23T01:09:34;98481.00;;;30.30
11321;BMP180;5715;48.234;14.320;2022-07-23T01:12:22;98499.00;;;30.10
11321;BMP180;5715;48.234;14.320;2022-07-23T01:15:09;98500.00;;;30.30
11321;BMP180;5715;48.234;14.320;2022-07-23T01:17:58;98481.00;;;30.50
11321;BMP180;5715;48.234;14.320;2022-07-23T01:20:45;98481.00;;;30.50
11321;BMP180;5715;48.234;14.320;2022-07-23T01:23:33;98485.00;;;30.50
11321;BMP180;5715;48.234;14.320;2022-07-23T01:26:20;98473.00;;;30.50
11321;BMP180;5715;48.234;14.320;2022-07-23T01:29:08;98460.00;;;30.60
11321;BMP180;5715;48.234;14.320;2022-07-23T01:31:55;98486.00;;;30.50
11321;BMP180;5715;48.234;14.320;2022-07-23T01:34:43;98490.00;;;30.20
11321;BMP180;5715;48.234;14.320;2022-07-23T01:37:31;98483.00;;;30.20
11321;BMP180;5715;48.234;14.320;2022-07-23T01:40:18;98494.00;;;30.00
11321;BMP180;5715;48.234;14.320;2022-07-23T01:43:08;98482.00;;;30.10
11321;BMP180;5715;48.234;14.320;2022-07-23T01:45:57;98482.00;;;30.20
11321;BMP180;5715;48.234;14.320;2022-07-23T01:48:45;98469.00;;;30.30
11321;BMP180;5715;48.234;14.320;2022-07-23T01:51:32;98458.00;;;30.20
11321;BMP180;5715;48.234;14.320;2022-07-23T01:54:20;98455.00;;;30.20
11321;BMP180;5715;48.234;14.320;2022-07-23T01:57:08;98453.00;;;30.20
11321;BMP180;5715;48.234;14.320;2022-07-23T01:59:56;98458.00;;;30.10
11321;BMP180;5715;48.234;14.320;2022-07-23T02:02:43;98451.00;;;30.10
11321;BMP180;5715;48.234;14.320;2022-07-23T02:05:31;98450.00;;;30.20
11321;BMP180;5715;48.234;14.320;2022-07-23T02:08:19;98454.00;;;30.10
11321;BMP180;5715;48.234;14.320;2022-07-23T02:11:07;98455.00;;;30.10
11321;BMP180;5715;48.234;14.320;2022-07-23T02:13:54;98452.00;;;29.90
11321;BMP180;5715;48.234;14.320;2022-07-23T02:16:42;98447.00;;;30.10
11321;BMP180;5715;48.234;14.320;2022-07-23T02:19:29;98451.00;;;30.10
11321;BMP180;5715;48.234;14.320;2022-07-23T02:22:17;98447.00;;;30.00
11321;BMP180;5715;48.234;14.320;2022-07-23T02:25:07;98453.00;;;29.90
11321;BMP180;5715;48.234;14.320;2022-07-23T02:27:55;98462.00;;;29.70
11321;BMP180;5715;48.234;14.320;2022-07-23T02:30:42;98477.00;;;29.70
11321;BMP180;5715;48.234;14.320;2022-07-23T02:33:30;98478.00;;;29.60
11321;BMP180;5715;48.234;14.320;2022-07-23T02:36:17;98474.00;;;29.30
11321;BMP180;5715;48.234;14.320;2022-07-23T02:39:05;98476.00;;;29.40
11321;BMP180;5715;48.234;14.320;2022-07-23T02:41:52;98482.00;;;29.20
11321;BMP180;5715;48.234;14.320;2022-07-23T02:44:40;98487.00;;;29.20
11321;BMP180;5715;48.234;14.320;2022-07-23T02:47:28;98482.00;;;29.10
11321;BMP180;5715;48.234;14.320;2022-07-23T02:50:15;98478.00;;;29.10
11321;BMP180;5715;48.234;14.320;2022-07-23T02:53:03;98475.00;;;29.00
11321;BMP180;5715;48.234;14.320;2022-07-23T02:55:51;98471.00;;;29.10
11321;BMP180;5715;48.234;14.320;2022-07-23T02:58:39;98472.00;;;29.00
11321;BMP180;5715;48.234;14.320;2022-07-23T03:01:26;98480.00;;;29.30
11321;BMP180;5715;48.234;14.320;2022-07-23T03:04:14;98478.00;;;29.10
11321;BMP180;5715;48.234;14.320;2022-07-23T03:07:02;98476.00;;;29.00
11321;BMP180;5715;48.234;14.320;2022-07-23T03:09:49;98487.00;;;29.00
11321;BMP180;5715;48.234;14.320;2022-07-23T03:12:37;98503.00;;;29.00
11321;BMP180;5715;48.234;14.320;2022-07-23T03:15:24;98506.00;;;28.80
11321;BMP180;5715;48.234;14.320;2022-07-23T03:18:12;98517.00;;;28.70
11321;BMP180;5715;48.234;14.320;2022-07-23T03:21:00;98519.00;;;28.70
11321;BMP180;5715;48.234;14.320;2022-07-23T03:23:48;98534.00;;;28.60
11321;BMP180;5715;48.234;14.320;2022-07-23T03:26:36;98551.00;;;28.60
11321;BMP180;5715;48.234;14.320;2022-07-23T03:29:24;98551.00;;;28.70
11321;BMP180;5715;48.234;14.320;2022-07-23T03:32:12;98539.00;;;28.70
11321;BMP180;5715;48.234;14.320;2022-07-23T03:34:59;98541.00;;;28.70
11321;BMP180;5715;48.234;14.320;2022-07-23T03:37:47;98553.00;;;28.60
11321;BMP180;5715;48.234;14.320;2022-07-23T03:40:34;98564.00;;;28.70
11321;BMP180;5715;48.234;14.320;2022-07-23T03:43:22;98564.00;;;28.70
11321;BMP180;5715;48.234;14.320;2022-07-23T03:46:12;98554.00;;;28.80
11321;BMP180;5715;48.234;14.320;2022-07-23T03:49:00;98557.00;;;28.80
11321;BMP180;5715;48.234;14.320;2022-07-23T03:51:48;98566.00;;;28.70
11321;BMP180;5715;48.234;14.320;2022-07-23T03:54:36;98565.00;;;28.70
11321;BMP180;5715;48.234;14.320;2022-07-23T03:57:23;98586.00;;;28.90
11321;BMP180;5715;48.234;14.320;2022-07-23T04:00:12;98620.00;;;28.90
11321;BMP180;5715;48.234;14.320;2022-07-23T04:03:00;98623.00;;;28.60
11321;BMP180;5715;48.234;14.320;2022-07-23T04:05:48;98629.00;;;28.60
11321;BMP180;5715;48.234;14.320;2022-07-23T04:08:35;98629.00;;;28.60
11321;BMP180;5715;48.234;14.320;2022-07-23T04:11:23;98621.00;;;28.20
11321;BMP180;5715;48.234;14.320;2022-07-23T04:14:10;98600.00;;;28.90
11321;BMP180;5715;48.234;14.320;2022-07-23T04:16:58;98619.00;;;28.70
11321;BMP180;5715;48.234;14.320;2022-07-23T04:19:46;98615.00;;;29.00
11321;BMP180;5715;48.234;14.320;2022-07-23T04:22:33;98624.00;;;29.80
11321;BMP180;5715;48.234;14.320;2022-07-23T04:25:21;98620.00;;;30.00
11321;BMP180;5715;48.234;14.320;2022-07-23T04:28:09;98627.00;;;30.20
11321;BMP180;5715;48.234;14.320;2022-07-23T04:30:57;98624.00;;;30.60
11321;BMP180;5715;48.234;14.320;2022-07-23T04:33:45;98630.00;;;31.30
11321;BMP180;5715;48.234;14.320;2022-07-23T04:36:32;98637.00;;;31.40
11321;BMP180;5715;48.234;14.320;2022-07-23T04:39:20;98639.00;;;31.50
11321;BMP180;5715;48.234;14.320;2022-07-23T04:42:08;98637.00;;;31.60
11321;BMP180;5715;48.234;14.320;2022-07-23T04:44:55;98640.00;;;32.40
11321;BMP180;5715;48.234;14.320;2022-07-23T04:47:43;98650.00;;;32.80
11321;BMP180;5715;48.234;14.320;2022-07-23T04:50:30;98656.00;;;32.80
11321;BMP180;5715;48.234;14.320;2022-07-23T04:53:18;98651.00;;;33.50
11321;BMP180;5715;48.234;14.320;2022-07-23T04:56:07;98658.00;;;33.60
11321;BMP180;5715;48.234;14.320;2022-07-23T04:58:55;98667.00;;;33.00
11321;BMP180;5715;48.234;14.320;2022-07-23T05:01:42;98670.00;;;33.30
11321;BMP180;5715;48.234;14.320;2022-07-23T05:04:30;98678.00;;;33.60
11321;BMP180;5715;48.234;14.320;2022-07-23T05:07:18;98675.00;;;34.30
11321;BMP180;5715;48.234;14.320;2022-07-23T05:10:06;98678.00;;;34.90
11321;BMP180;5715;48.234;14.320;2022-07-23T05:12:54;98680.00;;;35.70
11321;BMP180;5715;48.234;14.320;2022-07-23T05:15:42;98677.00;;;35.80
11321;BMP180;5715;48.234;14.320;2022-07-23T05:18:30;98668.00;;;34.90
11321;BMP180;5715;48.234;14.320;2022-07-23T05:21:18;98661.00;;;34.00
11321;BMP180;5715;48.234;14.320;2022-07-23T05:24:06;98673.00;;;33.40
11321;BMP180;5715;48.234;14.320;2022-07-23T05:26:54;98669.00;;;33.60
11321;BMP180;5715;48.234;14.320;2022-07-23T05:29:41;98661.00;;;34.00
11321;BMP180;5715;48.234;14.320;2022-07-23T05:32:31;98661.00;;;34.10
11321;BMP180;5715;48.234;14.320;2022-07-23T05:35:19;98653.00;;;33.50
11321;BMP180;5715;48.234;14.320;2022-07-23T05:38:07;98659.00;;;33.70
11321;BMP180;5715;48.234;14.320;2022-07-23T05:40:54;98650.00;;;34.30
11321;BMP180;5715;48.234;14.320;2022-07-23T05:43:42;98646.00;;;34.30
11321;BMP180;5715;48.234;14.320;2022-07-23T05:46:29;98634.00;;;34.50
11321;BMP180;5715;48.234;14.320;2022-07-23T05:49:17;98628.00;;;34.70
11321;BMP180;5715;48.234;14.320;2022-07-23T05:52:06;98623.00;;;34.50
11321;BMP180;5715;48.234;14.320;2022-07-23T05:54:54;98618.00;;;34.10
11321;BMP180;5715;48.234;14.320;2022-07-23T05:57:42;98619.00;;;33.30
11321;BMP180;5715;48.234;14.320;2022-07-23T06:00:30;98608.00;;;33.50
11321;BMP180;5715;48.234;14.320;2022-07-23T06:03:18;98607.00;;;32.70
11321;BMP180;5715;48.234;14.320;2022-07-23T06:06:06;98603.00;;;32.00
11321;BMP180;5715;48.234;14.320;2022-07-23T06:08:53;98603.00;;;32.00
11321;BMP180;5715;48.234;14.320;2022-07-23T06:11:41;98592.00;;;32.50
11321;BMP180;5715;48.234;14.320;2022-07-23T06:14:29;98599.00;;;31.40
11321;BMP180;5715;48.234;14.320;2022-07-23T06:17:17;98604.00;;;32.10
11321;BMP180;5715;48.234;14.320;2022-07-23T06:20:09;98612.00;;;31.90
11321;BMP180;5715;48.234;14.320;2022-07-23T06:22:57;98610.00;;;31.40
11321;BMP180;5715;48.234;14.320;2022-07-23T06:25:44;98618.00;;;31.60
11321;BMP180;5715;48.234;14.320;2022-07-23T06:28:32;98626.00;;;31.90
11321;BMP180;5715;48.234;14.320;2022-07-23T06:31:19;98624.00;;;32.00
11321;BMP180;5715;48.234;14.320;2022-07-23T06:34:07;98627.00;;;32.10
11321;BMP180;5715;48.234;14.320;2022-07-23T06:36:54;98632.00;;;32.40
11321;BMP180;5715;48.234;14.320;2022-07-23T06:39:42;98636.00;;;32.70
11321;BMP180;5715;48.234;14.320;2022-07-23T06:42:30;98630.00;;;32.30
11321;BMP180;5715;48.234;14.320;2022-07-23T06:45:18;98631.00;;;32.50
11321;BMP180;5715;48.234;14.320;2022-07-23T06:48:05;98628.00;;;32.80
11321;BMP180;5715;48.234;14.320;2022-07-23T06:50:53;98626.00;;;32.60
11321;BMP180;5715;48.234;14.320;2022-07-23T06:53:42;98624.00;;;32.50
11321;BMP180;5715;48.234;14.320;2022-07-23T06:56:29;98612.00;;;32.20
11321;BMP180;5715;48.234;14.320;2022-07-23T06:59:17;98611.00;;;32.60
11321;BMP180;5715;48.234;14.320;2022-07-23T07:02:04;98607.00;;;32.40
11321;BMP180;5715;48.234;14.320;2022-07-23T07:04:52;98605.00;;;32.90
11321;BMP180;5715;48.234;14.320;2022-07-23T07:07:40;98617.00;;;33.30
11321;BMP180;5715;48.234;14.320;2022-07-23T07:10:28;98620.00;;;33.40
11321;BMP180;5715;48.234;14.320;2022-07-23T07:13:15;98615.00;;;33.90
11321;BMP180;5715;48.234;14.320;2022-07-23T07:16:03;98619.00;;;34.00
11321;BMP180;5715;48.234;14.320;2022-07-23T07:18:51;98618.00;;;34.70
11321;BMP180;5715;48.234;14.320;2022-07-23T07:21:39;98612.00;;;34.40
11321;BMP180;5715;48.234;14.320;2022-07-23T07:24:26;98616.00;;;34.60
11321;BMP180;5715;48.234;14.320;2022-07-23T07:27:20;98609.00;;;34.60
11321;BMP180;5715;48.234;14.320;2022-07-23T07:30:09;98612.00;;;34.80
11321;BMP180;5715;48.234;14.320;2022-07-23T07:32:57;98615.00;;;35.00
11321;BMP180;5715;48.234;14.320;2022-07-23T07:35:44;98613.00;;;35.10
11321;BMP180;5715;48.234;14.320;2022-07-23T07:38:32;98616.00;;;35.20
11321;BMP180;5715;48.234;14.320;2022-07-23T07:41:19;98625.00;;;34.90
11321;BMP180;5715;48.234;14.320;2022-07-23T07:44:11;98621.00;;;34.80
11321;BMP180;5715;48.234;14.320;2022-07-23T07:46:58;98620.00;;;34.90
11321;BMP180;5715;48.234;14.320;2022-07-23T07:49:46;98628.00;;;35.10
11321;BMP180;5715;48.234;14.320;2022-07-23T07:52:35;98638.00;;;34.90
11321;BMP180;5715;48.234;14.320;2022-07-23T07:55:25;98640.00;;;35.30
11321;BMP180;5715;48.234;14.320;2022-07-23T07:58:14;98637.00;;;35.00
11321;BMP180;5715;48.234;14.320;2022-07-23T08:01:02;98642.00;;;35.00
11321;BMP180;5715;48.234;14.320;2022-07-23T08:03:50;98652.00;;;35.00
11321;BMP180;5715;48.234;14.320;2022-07-23T08:06:37;98651.00;;;35.00
11321;BMP180;5715;48.234;14.320;2022-07-23T08:09:25;98650.00;;;35.40
11321;BMP180;5715;48.234;14.320;2022-07-23T08:12:13;98650.00;;;35.40
11321;BMP180;5715;48.234;14.320;2022-07-23T08:15:00;98647.00;;;35.20
11321;BMP180;5715;48.234;14.320;2022-07-23T08:17:49;98652.00;;;35.80
11321;BMP180;5715;48.234;14.320;2022-07-23T08:20:37;98650.00;;;35.40
11321;BMP180;5715;48.234;14.320;2022-07-23T08:23:24;98647.00;;;34.40
11321;BMP180;5715;48.234;14.320;2022-07-23T08:26:16;98636.00;;;33.90
11321;BMP180;5715;48.234;14.320;2022-07-23T08:29:04;98637.00;;;34.50
11321;BMP180;5715;48.234;14.320;2022-07-23T08:31:51;98634.00;;;35.00
11321;BMP180;5715;48.234;14.320;2022-07-23T08:34:39;98636.00;;;34.80
11321;BMP180;5715;48.234;14.320;2022-07-23T08:37:30;98637.00;;;34.80
11321;BMP180;5715;48.234;14.320;2022-07-23T08:40:19;98640.00;;;34.40
11321;BMP180;5715;48.234;14.320;2022-07-23T08:43:11;98651.00;;;33.30
11321;BMP180;5715;48.234;14.320;2022-07-23T08:46:01;98656.00;;;33.50
11321;BMP180;5715;48.234;14.320;2022-07-23T08:48:50;98660.00;;;34.10
11321;BMP180;5715;48.234;14.320;2022-07-23T08:51:39;98672.00;;;34.70
11321;BMP180;5715;48.234;14.320;2022-07-23T08:54:27;98674.00;;;34.50
11321;BMP180;5715;48.234;14.320;2022-07-23T08:57:14;98678.00;;;34.50
11321;BMP180;5715;48.234;14.320;2022-07-23T09:00:05;98684.00;;;34.40
11321;BMP180;5715;48.234;14.320;2022-07-23T09:02:54;98672.00;;;34.80
11321;BMP180;5715;48.234;14.320;2022-07-23T09:05:41;98675.00;;;34.90
11321;BMP180;5715;48.234;14.320;2022-07-23T09:08:42;98676.00;;;34.60
11321;BMP180;5715;48.234;14.320;2022-07-23T09:11:30;98672.00;;;34.40
11321;BMP180;5715;48.234;14.320;2022-07-23T09:14:45;98672.00;;;34.20
11321;BMP180;5715;48.234;14.320;2022-07-23T09:17:52;98679.00;;;34.80
11321;BMP180;5715;48.234;14.320;2022-07-23T09:20:40;98684.00;;;35.50
11321;BMP180;5715;48.234;14.320;2022-07-23T09:24:07;98676.00;;;36.40
11321;BMP180;5715;48.234;14.320;2022-07-23T09:26:55;98680.00;;;36.20
11321;BMP180;5715;48.234;14.320;2022-07-23T09:29:56;98675.00;;;36.70
11321;BMP180;5715;48.234;14.320;2022-07-23T09:32:44;98680.00;;;37.10
11321;BMP180;5715;48.234;14.320;2022-07-23T09:35:55;98678.00;;;36.60
11321;BMP180;5715;48.234;14.320;2022-07-23T09:38:50;98670.00;;;36.40
11321;BMP180;5715;48.234;14.320;2022-07-23T09:41:46;98670.00;;;36.60
11321;BMP180;5715;48.234;14.320;2022-07-23T09:44:49;98674.00;;;36.50
11321;BMP180;5715;48.234;14.320;2022-07-23T09:47:37;98670.00;;;35.10
11321;BMP180;5715;48.234;14.320;2022-07-23T09:50:25;98665.00;;;36.10
11321;BMP180;5715;48.234;14.320;2022-07-23T09:53:25;98669.00;;;36.30
11321;BMP180;5715;48.234;14.320;2022-07-23T09:56:14;98658.00;;;36.10
11321;BMP180;5715;48.234;14.320;2022-07-23T09:59:02;98660.00;;;34.80
11321;BMP180;5715;48.234;14.320;2022-07-23T10:02:00;98655.00;;;35.20
11321;BMP180;5715;48.234;14.320;2022-07-23T10:04:48;98654.00;;;34.80
11321;BMP180;5715;48.234;14.320;2022-07-23T10:07:40;98659.00;;;34.80
11321;BMP180;5715;48.234;14.320;2022-07-23T10:10:31;98665.00;;;34.90
11321;BMP180;5715;48.234;14.320;2022-07-23T10:13:19;98661.00;;;35.70
11321;BMP180;5715;48.234;14.320;2022-07-23T10:16:32;98662.00;;;36.20
11321;BMP180;5715;48.234;14.320;2022-07-23T10:19:21;98653.00;;;35.30
11321;BMP180;5715;48.234;14.320;2022-07-23T10:22:15;98656.00;;;35.90
11321;BMP180;5715;48.234;14.320;2022-07-23T10:25:41;98654.00;;;36.00
11321;BMP180;5715;48.234;14.320;2022-07-23T10:35:22;98660.00;;;34.80
11321;BMP180;5715;48.234;14.320;2022-07-23T10:41:42;98666.00;;;35.90
11321;BMP180;5715;48.234;14.320;2022-07-23T10:44:40;98667.00;;;36.00
11321;BMP180;5715;48.234;14.320;2022-07-23T10:47:30;98666.00;;;36.60
11321;BMP180;5715;48.234;14.320;2022-07-23T10:50:35;98665.00;;;36.90
11321;BMP180;5715;48.234;14.320;2022-07-23T10:53:23;98659.00;;;37.30
11321;BMP180;5715;48.234;14.320;2022-07-23T10:56:14;98653.00;;;37.30
11321;BMP180;5715;48.234;14.320;2022-07-23T10:59:05;98663.00;;;37.50
11321;BMP180;5715;48.234;14.320;2022-07-23T11:01:52;98658.00;;;37.50
11321;BMP180;5715;48.234;14.320;2022-07-23T11:04:51;98653.00;;;37.80
11321;BMP180;5715;48.234;14.320;2022-07-23T11:13:49;98649.00;;;37.10
11321;BMP180;5715;48.234;14.320;2022-07-23T11:16:47;98651.00;;;36.60
11321;BMP180;5715;48.234;14.320;2022-07-23T11:20:16;98644.00;;;36.80
11321;BMP180;5715;48.234;14.320;2022-07-23T11:23:04;98656.00;;;36.50
11321;BMP180;5715;48.234;14.320;2022-07-23T11:25:51;98656.00;;;36.40
11321;BMP180;5715;48.234;14.320;2022-07-23T11:28:39;98656.00;;;36.50
11321;BMP180;5715;48.234;14.320;2022-07-23T11:31:27;98656.00;;;37.10
11321;BMP180;5715;48.234;14.320;2022-07-23T11:34:41;98656.00;;;37.20
11321;BMP180;5715;48.234;14.320;2022-07-23T11:37:39;98649.00;;;37.30
11321;BMP180;5715;48.234;14.320;2022-07-23T11:40:27;98647.00;;;37.30
11321;BMP180;5715;48.234;14.320;2022-07-23T11:43:15;98649.00;;;37.40
11321;BMP180;5715;48.234;14.320;2022-07-23T11:46:02;98639.00;;;37.30
11321;BMP180;5715;48.234;14.320;2022-07-23T11:49:02;98647.00;;;37.70
11321;BMP180;5715;48.234;14.320;2022-07-23T11:52:12;98640.00;;;38.10
11321;BMP180;5715;48.234;14.320;2022-07-23T11:55:10;98636.00;;;37.10
11321;BMP180;5715;48.234;14.320;2022-07-23T11:57:58;98640.00;;;37.50
11321;BMP180;5715;48.234;14.320;2022-07-23T12:00:47;98637.00;;;37.70
11321;BMP180;5715;48.234;14.320;2022-07-23T12:03:35;98637.00;;;38.00
11321;BMP180;5715;48.234;14.320;2022-07-23T12:06:23;98620.00;;;38.00
11321;BMP180;5715;48.234;14.320;2022-07-23T12:09:10;98624.00;;;37.70
11321;BMP180;5715;48.234;14.320;2022-07-23T12:12:01;98613.00;;;37.10
11321;BMP180;5715;48.234;14.320;2022-07-23T12:14:58;98619.00;;;37.20
11321;BMP180;5715;48.234;14.320;2022-07-23T12:17:47;98614.00;;;37.10
11321;BMP180;5715;48.234;14.320;2022-07-23T12:20:42;98618.00;;;37.60
11321;BMP180;5715;48.234;14.320;2022-07-23T12:23:30;98620.00;;;37.20
11321;BMP180;5715;48.234;14.320;2022-07-23T12:26:18;98617.00;;;37.20
11321;BMP180;5715;48.234;14.320;2022-07-23T12:29:05;98612.00;;;37.40
11321;BMP180;5715;48.234;14.320;2022-07-23T12:31:53;98603.00;;;37.30
11321;BMP180;5715;48.234;14.320;2022-07-23T12:34:42;98599.00;;;37.60
11321;BMP180;5715;48.234;14.320;2022-07-23T12:37:42;98593.00;;;37.30
11321;BMP180;5715;48.234;14.320;2022-07-23T12:43:35;98597.00;;;37.30
11321;BMP180;5715;48.234;14.320;2022-07-23T12:46:23;98584.00;;;38.00
11321;BMP180;5715;48.234;14.320;2022-07-23T12:49:25;98589.00;;;38.50
11321;BMP180;5715;48.234;14.320;2022-07-23T12:52:16;98581.00;;;38.20
11321;BMP180;5715;48.234;14.320;2022-07-23T12:55:26;98576.00;;;38.50
11321;BMP180;5715;48.234;14.320;2022-07-23T12:58:20;98574.00;;;38.90
11321;BMP180;5715;48.234;14.320;2022-07-23T13:07:01;98575.00;;;39.00
11321;BMP180;5715;48.234;14.320;2022-07-23T13:09:51;98570.00;;;38.50
11321;BMP180;5715;48.234;14.320;2022-07-23T13:12:39;98564.00;;;38.40
11321;BMP180;5715;48.234;14.320;2022-07-23T13:15:26;98574.00;;;39.20
11321;BMP180;5715;48.234;14.320;2022-07-23T13:18:14;98576.00;;;38.80
11321;BMP180;5715;48.234;14.320;2022-07-23T13:21:02;98574.00;;;38.40
11321;BMP180;5715;48.234;14.320;2022-07-23T13:23:50;98558.00;;;38.40
11321;BMP180;5715;48.234;14.320;2022-07-23T13:26:39;98565.00;;;38.10
11321;BMP180;5715;48.234;14.320;2022-07-23T13:29:26;98561.00;;;38.80
11321;BMP180;5715;48.234;14.320;2022-07-23T13:32:14;98566.00;;;37.70
11321;BMP180;5715;48.234;14.320;2022-07-23T13:35:02;98559.00;;;38.60
11321;BMP180;5715;48.234;14.320;2022-07-23T13:37:50;98565.00;;;38.80
11321;BMP180;5715;48.234;14.320;2022-07-23T13:40:42;98564.00;;;38.30
11321;BMP180;5715;48.234;14.320;2022-07-23T13:43:30;98557.00;;;36.50
11321;BMP180;5715;48.234;14.320;2022-07-23T13:46:22;98564.00;;;37.00
11321;BMP180;5715;48.234;14.320;2022-07-23T13:49:10;98573.00;;;37.40
11321;BMP180;5715;48.234;14.320;2022-07-23T13:52:00;98570.00;;;37.40
11321;BMP180;5715;48.234;14.320;2022-07-23T13:54:47;98568.00;;;37.30
11321;BMP180;5715;48.234;14.320;2022-07-23T13:57:35;98571.00;;;37.80
11321;BMP180;5715;48.234;14.320;2022-07-23T14:00:23;98568.00;;;38.10
11321;BMP180;5715;48.234;14.320;2022-07-23T14:03:31;98563.00;;;37.30
11321;BMP180;5715;48.234;14.320;2022-07-23T14:06:20;98569.00;;;37.30
11321;BMP180;5715;48.234;14.320;2022-07-23T14:09:19;98573.00;;;37.40
11321;BMP180;5715;48.234;14.320;2022-07-23T14:12:08;98575.00;;;36.40
11321;BMP180;5715;48.234;14.320;2022-07-23T14:14:57;98568.00;;;37.00
11321;BMP180;5715;48.234;14.320;2022-07-23T14:17:46;98576.00;;;36.40
11321;BMP180;5715;48.234;14.320;2022-07-23T14:20:35;98577.00;;;36.00
11321;BMP180;5715;48.234;14.320;2022-07-23T14:23:23;98577.00;;;36.10
11321;BMP180;5715;48.234;14.320;2022-07-23T14:26:11;98579.00;;;35.80
11321;BMP180;5715;48.234;14.320;2022-07-23T14:29:02;98577.00;;;36.00
11321;BMP180;5715;48.234;14.320;2022-07-23T14:31:51;98580.00;;;36.30
11321;BMP180;5715;48.234;14.320;2022-07-23T14:34:40;98575.00;;;36.30
11321;BMP180;5715;48.234;14.320;2022-07-23T14:37:28;98580.00;;;36.60
11321;BMP180;5715;48.234;14.320;2022-07-23T14:40:18;98580.00;;;36.20
11321;BMP180;5715;48.234;14.320;2022-07-23T14:43:05;98581.00;;;36.30
11321;BMP180;5715;48.234;14.320;2022-07-23T14:45:56;98590.00;;;36.20
11321;BMP180;5715;48.234;14.320;2022-07-23T14:48:44;98589.00;;;35.80
11321;BMP180;5715;48.234;14.320;2022-07-23T14:51:32;98583.00;;;36.20
11321;BMP180;5715;48.234;14.320;2022-07-23T14:54:20;98587.00;;;35.60
11321;BMP180;5715;48.234;14.320;2022-07-23T14:57:07;98583.00;;;35.50
11321;BMP180;5715;48.234;14.320;2022-07-23T14:59:57;98589.00;;;36.00
11321;BMP180;5715;48.234;14.320;2022-07-23T15:02:45;98583.00;;;36.10
11321;BMP180;5715;48.234;14.320;2022-07-23T15:05:41;98578.00;;;36.10
11321;BMP180;5715;48.234;14.320;2022-07-23T15:08:28;98577.00;;;36.10
11321;BMP180;5715;48.234;14.320;2022-07-23T15:11:16;98579.00;;;36.00
11321;BMP180;5715;48.234;14.320;2022-07-23T15:14:04;98582.00;;;35.60
11321;BMP180;5715;48.234;14.320;2022-07-23T15:16:52;98583.00;;;35.70
11321;BMP180;5715;48.234;14.320;2022-07-23T15:19:40;98589.00;;;35.80
11321;BMP180;5715;48.234;14.320;2022-07-23T15:22:27;98586.00;;;35.70
11321;BMP180;5715;48.234;14.320;2022-07-23T15:25:15;98583.00;;;35.30
11321;BMP180;5715;48.234;14.320;2022-07-23T15:28:04;98575.00;;;35.20
11321;BMP180;5715;48.234;14.320;2022-07-23T15:30:55;98566.00;;;35.00
11321;BMP180;5715;48.234;14.320;2022-07-23T15:33:43;98575.00;;;34.50
11321;BMP180;5715;48.234;14.320;2022-07-23T15:36:30;98569.00;;;34.90
11321;BMP180;5715;48.234;14.320;2022-07-23T15:39:18;98563.00;;;34.20
11321;BMP180;5715;48.234;14.320;2022-07-23T15:42:06;98566.00;;;34.50
11321;BMP180;5715;48.234;14.320;2022-07-23T15:45:03;98562.00;;;33.90
11321;BMP180;5715;48.234;14.320;2022-07-23T15:47:52;98568.00;;;33.80
11321;BMP180;5715;48.234;14.320;2022-07-23T15:50:40;98562.00;;;33.90
11321;BMP180;5715;48.234;14.320;2022-07-23T15:53:33;98560.00;;;33.90
11321;BMP180;5715;48.234;14.320;2022-07-23T15:56:23;98555.00;;;33.70
11321;BMP180;5715;48.234;14.320;2022-07-23T15:59:11;98562.00;;;33.90
11321;BMP180;5715;48.234;14.320;2022-07-23T16:01:58;98564.00;;;34.10
11321;BMP180;5715;48.234;14.320;2022-07-23T16:04:46;98563.00;;;33.70
11321;BMP180;5715;48.234;14.320;2022-07-23T16:07:34;98559.00;;;33.80
11321;BMP180;5715;48.234;14.320;2022-07-23T16:10:24;98551.00;;;33.50
11321;BMP180;5715;48.234;14.320;2022-07-23T16:13:12;98548.00;;;33.50
11321;BMP180;5715;48.234;14.320;2022-07-23T16:16:01;98556.00;;;33.50
11321;BMP180;5715;48.234;14.320;2022-07-23T16:18:48;98561.00;;;33.40
11321;BMP180;5715;48.234;14.320;2022-07-23T16:21:39;98556.00;;;33.40
11321;BMP180;5715;48.234;14.320;2022-07-23T16:24:27;98550.00;;;33.00
11321;BMP180;5715;48.234;14.320;2022-07-23T16:27:14;98543.00;;;33.00
11321;BMP180;5715;48.234;14.320;2022-07-23T16:30:03;98558.00;;;33.10
11321;BMP180;5715;48.234;14.320;2022-07-23T16:32:51;98562.00;;;33.30
11321;BMP180;5715;48.234;14.320;2022-07-23T16:35:39;98558.00;;;33.30
11321;BMP180;5715;48.234;14.320;2022-07-23T16:38:27;98571.00;;;32.80
11321;BMP180;5715;48.234;14.320;2022-07-23T16:41:14;98574.00;;;32.90
11321;BMP180;5715;48.234;14.320;2022-07-23T16:44:02;98566.00;;;32.90